sensor_id;sensor_type;location;lat;lon;timestamp;temperature;humidity
22006;DHT22;11167;46.988;15.470;2023-09-19T00:01:42;22.60;80.60
22006;DHT22;11167;46.988;15.470;2023-09-19T00:03:45;22.50;80.40
22006;DHT22;11167;46.988;15.470;2023-09-19T00:05:48;22.50;81.00
22006;DHT22;11167;46.988;15.470;2023-09-19T00:07:51;22.50;80.50
22006;DHT22;11167;46.988;15.470;2023-09-19T00:09:54;22.50;80.60
22006;DHT22;11167;46.988;15.470;2023-09-19T00:11:55;22.50;80.50
22006;DHT22;11167;46.988;15.470;2023-09-19T00:16:16;22.40;80.50
22006;DHT22;11167;46.988;15.470;2023-09-19T00:18:19;22.50;80.60
22006;DHT22;11167;46.988;15.470;2023-09-19T00:20:24;22.40;80.50
22006;DHT22;11167;46.988;15.470;2023-09-19T00:22:25;22.40;80.60
22006;DHT22;11167;46.988;15.470;2023-09-19T00:24:27;22.50;80.60
22006;DHT22;11167;46.988;15.470;2023-09-19T00:26:34;22.40;80.50
22006;DHT22;11167;46.988;15.470;2023-09-19T00:28:35;22.40;80.60
22006;DHT22;11167;46.988;15.470;2023-09-19T00:30:36;22.40;81.40
22006;DHT22;11167;46.988;15.470;2023-09-19T00:32:39;22.40;80.60
22006;DHT22;11167;46.988;15.470;2023-09-19T00:34:39;22.40;80.60
22006;DHT22;11167;46.988;15.470;2023-09-19T00:36:40;22.40;80.60
22006;DHT22;11167;46.988;15.470;2023-09-19T00:38:43;22.40;80.60
22006;DHT22;11167;46.988;15.470;2023-09-19T00:40:46;22.40;80.60
22006;DHT22;11167;46.988;15.470;2023-09-19T00:42:48;22.40;80.60
22006;DHT22;11167;46.988;15.470;2023-09-19T00:44:49;22.30;80.50
22006;DHT22;11167;46.988;15.470;2023-09-19T00:46:52;22.30;80.60
22006;DHT22;11167;46.988;15.470;2023-09-19T00:48:53;22.30;80.00
22006;DHT22;11167;46.988;15.470;2023-09-19T00:50:54;22.30;80.60
22006;DHT22;11167;46.988;15.470;2023-09-19T00:52:55;22.30;80.60
22006;DHT22;11167;46.988;15.470;2023-09-19T00:54:59;22.30;80.60
22006;DHT22;11167;46.988;15.470;2023-09-19T00:57:00;22.30;80.60
22006;DHT22;11167;46.988;15.470;2023-09-19T00:59:01;22.30;80.70
22006;DHT22;11167;46.988;15.470;2023-09-19T01:01:02;22.30;80.70
22006;DHT22;11167;46.988;15.470;2023-09-19T01:03:07;22.30;80.70
22006;DHT22;11167;46.988;15.470;2023-09-19T01:05:10;22.30;80.70
22006;DHT22;11167;46.988;15.470;2023-09-19T01:07:11;22.30;81.50
22006;DHT22;11167;46.988;15.470;2023-09-19T01:09:13;22.20;80.60
22006;DHT22;11167;46.988;15.470;2023-09-19T01:11:21;22.20;80.70
22006;DHT22;11167;46.988;15.470;2023-09-19T01:17:48;22.20;80.70
22006;DHT22;11167;46.988;15.470;2023-09-19T01:25:03;22.20;80.70
22006;DHT22;11167;46.988;15.470;2023-09-19T01:26:41;22.20;80.80
22006;DHT22;11167;46.988;15.470;2023-09-19T01:28:53;22.20;80.70
22006;DHT22;11167;46.988;15.470;2023-09-19T01:30:58;22.10;80.70
22006;DHT22;11167;46.988;15.470;2023-09-19T01:33:00;22.10;80.70
22006;DHT22;11167;46.988;15.470;2023-09-19T01:35:01;22.10;80.80
22006;DHT22;11167;46.988;15.470;2023-09-19T01:37:04;22.10;80.70
22006;DHT22;11167;46.988;15.470;2023-09-19T01:39:06;22.10;80.70
22006;DHT22;11167;46.988;15.470;2023-09-19T01:41:11;22.10;80.70
22006;DHT22;11167;46.988;15.470;2023-09-19T01:43:24;22.10;80.70
22006;DHT22;11167;46.988;15.470;2023-09-19T01:45:30;22.10;80.80
22006;DHT22;11167;46.988;15.470;2023-09-19T01:49:33;22.10;80.70
22006;DHT22;11167;46.988;15.470;2023-09-19T01:53:44;22.10;80.80
22006;DHT22;11167;46.988;15.470;2023-09-19T01:55:46;22.10;80.80
22006;DHT22;11167;46.988;15.470;2023-09-19T02:00:10;22.10;81.60
22006;DHT22;11167;46.988;15.470;2023-09-19T02:02:12;22.10;80.90
22006;DHT22;11167;46.988;15.470;2023-09-19T02:04:14;22.10;80.90
22006;DHT22;11167;46.988;15.470;2023-09-19T02:06:15;22.00;80.80
22006;DHT22;11167;46.988;15.470;2023-09-19T02:08:18;22.10;80.90
22006;DHT22;11167;46.988;15.470;2023-09-19T02:10:19;22.00;81.40
22006;DHT22;11167;46.988;15.470;2023-09-19T02:12:20;22.00;80.90
22006;DHT22;11167;46.988;15.470;2023-09-19T02:14:21;22.00;80.90
22006;DHT22;11167;46.988;15.470;2023-09-19T02:16:22;22.00;80.90
22006;DHT22;11167;46.988;15.470;2023-09-19T02:18:23;22.00;80.90
22006;DHT22;11167;46.988;15.470;2023-09-19T02:20:24;22.00;80.90
22006;DHT22;11167;46.988;15.470;2023-09-19T02:22:27;22.00;80.90
22006;DHT22;11167;46.988;15.470;2023-09-19T02:24:28;22.00;80.90
22006;DHT22;11167;46.988;15.470;2023-09-19T02:28:43;22.00;80.90
22006;DHT22;11167;46.988;15.470;2023-09-19T02:30:47;22.00;80.90
22006;DHT22;11167;46.988;15.470;2023-09-19T02:32:47;22.00;80.90
22006;DHT22;11167;46.988;15.470;2023-09-19T02:34:50;22.00;81.70
22006;DHT22;11167;46.988;15.470;2023-09-19T02:36:52;22.00;81.00
22006;DHT22;11167;46.988;15.470;2023-09-19T02:38:55;22.00;81.00
22006;DHT22;11167;46.988;15.470;2023-09-19T02:40:56;21.90;81.50
22006;DHT22;11167;46.988;15.470;2023-09-19T02:42:57;21.90;80.90
22006;DHT22;11167;46.988;15.470;2023-09-19T02:44:59;22.00;81.00
22006;DHT22;11167;46.988;15.470;2023-09-19T02:47:00;22.00;81.10
22006;DHT22;11167;46.988;15.470;2023-09-19T02:49:02;21.90;80.90
22006;DHT22;11167;46.988;15.470;2023-09-19T02:51:05;21.90;80.90
22006;DHT22;11167;46.988;15.470;2023-09-19T02:53:06;21.90;80.90
22006;DHT22;11167;46.988;15.470;2023-09-19T02:55:07;21.90;80.90
22006;DHT22;11167;46.988;15.470;2023-09-19T02:57:09;21.90;80.90
22006;DHT22;11167;46.988;15.470;2023-09-19T02:59:10;21.90;81.00
22006;DHT22;11167;46.988;15.470;2023-09-19T03:01:11;21.90;81.00
22006;DHT22;11167;46.988;15.470;2023-09-19T03:03:13;21.90;80.90
22006;DHT22;11167;46.988;15.470;2023-09-19T03:05:14;21.90;81.10
22006;DHT22;11167;46.988;15.470;2023-09-19T03:07:14;21.90;81.00
22006;DHT22;11167;46.988;15.470;2023-09-19T03:09:15;21.90;81.00
22006;DHT22;11167;46.988;15.470;2023-09-19T03:11:17;21.90;81.00
22006;DHT22;11167;46.988;15.470;2023-09-19T03:13:20;21.90;81.10
22006;DHT22;11167;46.988;15.470;2023-09-19T03:15:21;21.90;81.10
22006;DHT22;11167;46.988;15.470;2023-09-19T03:17:22;21.90;81.10
22006;DHT22;11167;46.988;15.470;2023-09-19T03:19:23;21.90;81.10
22006;DHT22;11167;46.988;15.470;2023-09-19T03:21:24;21.80;81.00
22006;DHT22;11167;46.988;15.470;2023-09-19T03:23:26;21.80;81.00
22006;DHT22;11167;46.988;15.470;2023-09-19T03:25:28;21.80;81.10
22006;DHT22;11167;46.988;15.470;2023-09-19T03:27:29;21.80;81.00
22006;DHT22;11167;46.988;15.470;2023-09-19T03:29:30;21.80;81.00
22006;DHT22;11167;46.988;15.470;2023-09-19T03:31:31;21.80;81.10
22006;DHT22;11167;46.988;15.470;2023-09-19T03:33:32;21.80;81.00
22006;DHT22;11167;46.988;15.470;2023-09-19T03:35:33;21.80;81.00
22006;DHT22;11167;46.988;15.470;2023-09-19T03:37:35;21.80;81.10
22006;DHT22;11167;46.988;15.470;2023-09-19T03:39:36;21.80;81.10
22006;DHT22;11167;46.988;15.470;2023-09-19T03:41:37;21.80;81.10
22006;DHT22;11167;46.988;15.470;2023-09-19T03:43:38;21.80;81.10
22006;DHT22;11167;46.988;15.470;2023-09-19T03:45:38;21.80;81.10
22006;DHT22;11167;46.988;15.470;2023-09-19T03:47:40;21.80;81.10
22006;DHT22;11167;46.988;15.470;2023-09-19T03:49:41;21.80;81.20
22006;DHT22;11167;46.988;15.470;2023-09-19T03:51:42;21.70;81.00
22006;DHT22;11167;46.988;15.470;2023-09-19T03:53:43;21.80;81.10
22006;DHT22;11167;46.988;15.470;2023-09-19T03:55:44;21.80;81.10
22006;DHT22;11167;46.988;15.470;2023-09-19T03:57:47;21.80;81.10
22006;DHT22;11167;46.988;15.470;2023-09-19T03:59:48;21.70;81.10
22006;DHT22;11167;46.988;15.470;2023-09-19T04:01:48;21.80;81.30
22006;DHT22;11167;46.988;15.470;2023-09-19T04:03:50;21.70;81.10
22006;DHT22;11167;46.988;15.470;2023-09-19T04:05:53;21.70;81.20
22006;DHT22;11167;46.988;15.470;2023-09-19T04:07:54;21.70;81.20
22006;DHT22;11167;46.988;15.470;2023-09-19T04:09:55;21.70;81.10
22006;DHT22;11167;46.988;15.470;2023-09-19T04:11:56;21.70;81.10
22006;DHT22;11167;46.988;15.470;2023-09-19T04:13:57;21.70;81.10
22006;DHT22;11167;46.988;15.470;2023-09-19T04:15:58;21.70;81.10
22006;DHT22;11167;46.988;15.470;2023-09-19T04:17:58;21.70;81.20
22006;DHT22;11167;46.988;15.470;2023-09-19T04:20:00;21.70;81.10
22006;DHT22;11167;46.988;15.470;2023-09-19T04:22:01;21.70;81.30
22006;DHT22;11167;46.988;15.470;2023-09-19T04:24:02;21.70;81.20
22006;DHT22;11167;46.988;15.470;2023-09-19T04:26:03;21.70;81.20
22006;DHT22;11167;46.988;15.470;2023-09-19T04:28:07;21.60;81.10
22006;DHT22;11167;46.988;15.470;2023-09-19T04:30:08;21.70;81.20
22006;DHT22;11167;46.988;15.470;2023-09-19T04:32:12;21.70;81.30
22006;DHT22;11167;46.988;15.470;2023-09-19T04:34:13;21.70;81.40
22006;DHT22;11167;46.988;15.470;2023-09-19T04:36:16;21.70;81.30
22006;DHT22;11167;46.988;15.470;2023-09-19T04:38:18;21.70;81.30
22006;DHT22;11167;46.988;15.470;2023-09-19T04:40:19;21.60;81.30
22006;DHT22;11167;46.988;15.470;2023-09-19T04:42:20;21.60;81.30
22006;DHT22;11167;46.988;15.470;2023-09-19T04:44:22;21.60;81.30
22006;DHT22;11167;46.988;15.470;2023-09-19T04:46:23;21.60;81.30
22006;DHT22;11167;46.988;15.470;2023-09-19T04:48:25;21.60;81.30
22006;DHT22;11167;46.988;15.470;2023-09-19T04:50:26;21.60;81.30
22006;DHT22;11167;46.988;15.470;2023-09-19T04:52:30;21.60;81.30
22006;DHT22;11167;46.988;15.470;2023-09-19T04:54:30;21.60;81.50
22006;DHT22;11167;46.988;15.470;2023-09-19T04:56:31;21.60;81.40
22006;DHT22;11167;46.988;15.470;2023-09-19T04:58:32;21.60;81.40
22006;DHT22;11167;46.988;15.470;2023-09-19T05:00:34;21.60;81.50
22006;DHT22;11167;46.988;15.470;2023-09-19T05:02:35;21.60;81.50
22006;DHT22;11167;46.988;15.470;2023-09-19T05:04:36;21.60;81.50
22006;DHT22;11167;46.988;15.470;2023-09-19T05:06:37;21.60;81.50
22006;DHT22;11167;46.988;15.470;2023-09-19T05:08:38;21.60;81.50
22006;DHT22;11167;46.988;15.470;2023-09-19T05:10:39;21.60;81.50
22006;DHT22;11167;46.988;15.470;2023-09-19T05:12:40;21.60;81.50
22006;DHT22;11167;46.988;15.470;2023-09-19T05:14:41;21.50;81.40
22006;DHT22;11167;46.988;15.470;2023-09-19T05:16:42;21.50;81.40
22006;DHT22;11167;46.988;15.470;2023-09-19T05:18:43;21.50;81.50
22006;DHT22;11167;46.988;15.470;2023-09-19T05:20:44;21.50;81.50
22006;DHT22;11167;46.988;15.470;2023-09-19T05:22:45;21.50;81.40
22006;DHT22;11167;46.988;15.470;2023-09-19T05:24:46;21.50;81.50
22006;DHT22;11167;46.988;15.470;2023-09-19T05:26:48;21.50;81.50
22006;DHT22;11167;46.988;15.470;2023-09-19T05:28:49;21.50;81.60
22006;DHT22;11167;46.988;15.470;2023-09-19T05:30:50;21.50;81.60
22006;DHT22;11167;46.988;15.470;2023-09-19T05:32:51;21.50;81.60
22006;DHT22;11167;46.988;15.470;2023-09-19T05:34:53;21.50;81.60
22006;DHT22;11167;46.988;15.470;2023-09-19T05:36:55;21.50;81.60
22006;DHT22;11167;46.988;15.470;2023-09-19T05:38:56;21.50;82.50
22006;DHT22;11167;46.988;15.470;2023-09-19T05:40:58;21.50;81.60
22006;DHT22;11167;46.988;15.470;2023-09-19T05:42:59;21.40;81.60
22006;DHT22;11167;46.988;15.470;2023-09-19T05:45:00;21.50;82.50
22006;DHT22;11167;46.988;15.470;2023-09-19T05:47:01;21.40;81.60
22006;DHT22;11167;46.988;15.470;2023-09-19T05:49:02;21.40;81.60
22006;DHT22;11167;46.988;15.470;2023-09-19T05:51:03;21.40;81.60
22006;DHT22;11167;46.988;15.470;2023-09-19T05:53:05;21.40;81.60
22006;DHT22;11167;46.988;15.470;2023-09-19T05:55:06;21.40;81.60
22006;DHT22;11167;46.988;15.470;2023-09-19T05:57:08;21.40;81.60
22006;DHT22;11167;46.988;15.470;2023-09-19T05:59:08;21.40;81.60
22006;DHT22;11167;46.988;15.470;2023-09-19T06:01:09;21.40;81.60
22006;DHT22;11167;46.988;15.470;2023-09-19T06:03:10;21.40;81.60
22006;DHT22;11167;46.988;15.470;2023-09-19T06:05:13;21.40;81.60
22006;DHT22;11167;46.988;15.470;2023-09-19T06:07:16;21.40;81.70
22006;DHT22;11167;46.988;15.470;2023-09-19T06:09:17;21.40;81.70
22006;DHT22;11167;46.988;15.470;2023-09-19T06:11:19;21.40;81.70
22006;DHT22;11167;46.988;15.470;2023-09-19T06:13:21;21.40;82.60
22006;DHT22;11167;46.988;15.470;2023-09-19T06:15:22;21.40;81.70
22006;DHT22;11167;46.988;15.470;2023-09-19T06:17:25;21.40;81.60
22006;DHT22;11167;46.988;15.470;2023-09-19T06:19:27;21.30;82.40
22006;DHT22;11167;46.988;15.470;2023-09-19T06:21:28;21.30;81.60
22006;DHT22;11167;46.988;15.470;2023-09-19T06:23:29;21.30;81.60
22006;DHT22;11167;46.988;15.470;2023-09-19T06:25:30;21.30;81.70
22006;DHT22;11167;46.988;15.470;2023-09-19T06:27:30;21.30;81.70
22006;DHT22;11167;46.988;15.470;2023-09-19T06:29:31;21.30;81.70
22006;DHT22;11167;46.988;15.470;2023-09-19T06:31:32;21.30;81.70
22006;DHT22;11167;46.988;15.470;2023-09-19T06:33:33;21.30;81.70
22006;DHT22;11167;46.988;15.470;2023-09-19T06:35:33;21.30;81.70
22006;DHT22;11167;46.988;15.470;2023-09-19T06:37:34;21.30;81.70
22006;DHT22;11167;46.988;15.470;2023-09-19T06:39:35;21.30;81.70
22006;DHT22;11167;46.988;15.470;2023-09-19T06:41:37;21.30;81.70
22006;DHT22;11167;46.988;15.470;2023-09-19T06:43:39;21.30;81.70
22006;DHT22;11167;46.988;15.470;2023-09-19T06:45:40;21.30;81.70
22006;DHT22;11167;46.988;15.470;2023-09-19T06:47:41;21.30;81.70
22006;DHT22;11167;46.988;15.470;2023-09-19T06:49:43;21.30;81.20
22006;DHT22;11167;46.988;15.470;2023-09-19T06:51:44;21.30;82.10
22006;DHT22;11167;46.988;15.470;2023-09-19T06:53:45;21.20;81.70
22006;DHT22;11167;46.988;15.470;2023-09-19T06:55:46;21.30;81.80
22006;DHT22;11167;46.988;15.470;2023-09-19T06:57:48;21.30;81.80
22006;DHT22;11167;46.988;15.470;2023-09-19T06:59:49;21.20;81.80
22006;DHT22;11167;46.988;15.470;2023-09-19T07:01:50;21.20;81.70
22006;DHT22;11167;46.988;15.470;2023-09-19T07:03:51;21.20;81.70
22006;DHT22;11167;46.988;15.470;2023-09-19T07:05:53;21.20;81.70
22006;DHT22;11167;46.988;15.470;2023-09-19T07:07:56;21.20;81.80
22006;DHT22;11167;46.988;15.470;2023-09-19T07:09:59;21.20;82.60
22006;DHT22;11167;46.988;15.470;2023-09-19T07:12:00;21.20;81.70
22006;DHT22;11167;46.988;15.470;2023-09-19T07:14:01;21.20;82.60
22006;DHT22;11167;46.988;15.470;2023-09-19T07:16:03;21.20;81.70
22006;DHT22;11167;46.988;15.470;2023-09-19T07:18:05;21.20;81.70
22006;DHT22;11167;46.988;15.470;2023-09-19T07:20:06;21.20;81.70
22006;DHT22;11167;46.988;15.470;2023-09-19T07:22:09;21.20;81.80
22006;DHT22;11167;46.988;15.470;2023-09-19T07:24:11;21.20;81.80
22006;DHT22;11167;46.988;15.470;2023-09-19T07:26:11;21.20;81.80
22006;DHT22;11167;46.988;15.470;2023-09-19T07:28:12;21.20;81.80
22006;DHT22;11167;46.988;15.470;2023-09-19T07:30:13;21.20;81.80
22006;DHT22;11167;46.988;15.470;2023-09-19T07:32:15;21.20;81.80
22006;DHT22;11167;46.988;15.470;2023-09-19T07:34:17;21.20;81.90
22006;DHT22;11167;46.988;15.470;2023-09-19T07:36:18;21.20;81.90
22006;DHT22;11167;46.988;15.470;2023-09-19T07:38:20;21.20;81.90
22006;DHT22;11167;46.988;15.470;2023-09-19T07:40:22;21.20;81.90
22006;DHT22;11167;46.988;15.470;2023-09-19T07:42:24;21.20;81.90
22006;DHT22;11167;46.988;15.470;2023-09-19T07:44:25;21.20;82.00
22006;DHT22;11167;46.988;15.470;2023-09-19T07:46:26;21.20;81.90
22006;DHT22;11167;46.988;15.470;2023-09-19T07:48:27;21.20;81.90
22006;DHT22;11167;46.988;15.470;2023-09-19T07:50:28;21.20;81.90
22006;DHT22;11167;46.988;15.470;2023-09-19T07:52:29;21.20;81.90
22006;DHT22;11167;46.988;15.470;2023-09-19T07:54:30;21.20;81.90
22006;DHT22;11167;46.988;15.470;2023-09-19T07:56:32;21.20;81.80
22006;DHT22;11167;46.988;15.470;2023-09-19T07:58:34;21.20;81.40
22006;DHT22;11167;46.988;15.470;2023-09-19T08:00:36;21.20;81.90
22006;DHT22;11167;46.988;15.470;2023-09-19T08:02:37;21.20;81.90
22006;DHT22;11167;46.988;15.470;2023-09-19T08:04:45;21.10;81.70
22006;DHT22;11167;46.988;15.470;2023-09-19T08:06:43;21.10;81.70
22006;DHT22;11167;46.988;15.470;2023-09-19T08:08:45;21.20;82.10
22006;DHT22;11167;46.988;15.470;2023-09-19T08:10:46;21.10;81.70
22006;DHT22;11167;46.988;15.470;2023-09-19T08:12:49;21.10;81.70
22006;DHT22;11167;46.988;15.470;2023-09-19T08:14:52;21.10;81.70
22006;DHT22;11167;46.988;15.470;2023-09-19T08:16:55;21.10;81.70
22006;DHT22;11167;46.988;15.470;2023-09-19T08:18:56;21.10;81.70
22006;DHT22;11167;46.988;15.470;2023-09-19T08:20:58;21.10;81.70
22006;DHT22;11167;46.988;15.470;2023-09-19T08:23:01;21.10;81.70
22006;DHT22;11167;46.988;15.470;2023-09-19T08:25:01;21.10;81.70
22006;DHT22;11167;46.988;15.470;2023-09-19T08:27:04;21.10;81.60
22006;DHT22;11167;46.988;15.470;2023-09-19T08:29:06;21.10;81.60
22006;DHT22;11167;46.988;15.470;2023-09-19T08:31:09;21.10;81.70
22006;DHT22;11167;46.988;15.470;2023-09-19T08:33:10;21.10;81.60
22006;DHT22;11167;46.988;15.470;2023-09-19T08:35:11;21.10;81.60
22006;DHT22;11167;46.988;15.470;2023-09-19T08:37:11;21.10;81.60
22006;DHT22;11167;46.988;15.470;2023-09-19T08:39:12;21.10;81.70
22006;DHT22;11167;46.988;15.470;2023-09-19T08:41:15;21.10;81.60
22006;DHT22;11167;46.988;15.470;2023-09-19T08:43:17;21.10;81.60
22006;DHT22;11167;46.988;15.470;2023-09-19T08:45:20;21.10;81.70
22006;DHT22;11167;46.988;15.470;2023-09-19T08:47:29;21.10;81.70
22006;DHT22;11167;46.988;15.470;2023-09-19T08:49:33;21.10;81.70
22006;DHT22;11167;46.988;15.470;2023-09-19T08:51:33;21.20;81.80
22006;DHT22;11167;46.988;15.470;2023-09-19T08:55:40;21.10;81.70
22006;DHT22;11167;46.988;15.470;2023-09-19T08:57:42;21.10;82.30
22006;DHT22;11167;46.988;15.470;2023-09-19T08:59:45;21.20;81.80
22006;DHT22;11167;46.988;15.470;2023-09-19T09:01:47;21.20;82.10
22006;DHT22;11167;46.988;15.470;2023-09-19T09:03:49;21.20;81.90
22006;DHT22;11167;46.988;15.470;2023-09-19T09:05:51;21.20;81.90
22006;DHT22;11167;46.988;15.470;2023-09-19T09:07:52;21.20;81.90
22006;DHT22;11167;46.988;15.470;2023-09-19T09:09:56;21.20;81.90
22006;DHT22;11167;46.988;15.470;2023-09-19T09:11:57;21.20;81.90
22006;DHT22;11167;46.988;15.470;2023-09-19T09:13:59;21.20;81.90
22006;DHT22;11167;46.988;15.470;2023-09-19T09:16:00;21.20;81.90
22006;DHT22;11167;46.988;15.470;2023-09-19T09:18:01;21.20;81.90
22006;DHT22;11167;46.988;15.470;2023-09-19T09:20:03;21.20;81.90
22006;DHT22;11167;46.988;15.470;2023-09-19T09:22:10;21.20;81.90
22006;DHT22;11167;46.988;15.470;2023-09-19T09:25:11;21.20;81.90
22006;DHT22;11167;46.988;15.470;2023-09-19T09:28:44;21.20;81.90
22006;DHT22;11167;46.988;15.470;2023-09-19T09:30:43;21.30;82.10
22006;DHT22;11167;46.988;15.470;2023-09-19T09:32:44;21.20;82.00
22006;DHT22;11167;46.988;15.470;2023-09-19T09:34:45;21.20;82.00
22006;DHT22;11167;46.988;15.470;2023-09-19T09:36:47;21.30;82.10
22006;DHT22;11167;46.988;15.470;2023-09-19T09:38:48;21.30;82.10
22006;DHT22;11167;46.988;15.470;2023-09-19T09:40:49;21.30;82.10
22006;DHT22;11167;46.988;15.470;2023-09-19T09:43:07;21.30;82.10
22006;DHT22;11167;46.988;15.470;2023-09-19T09:47:16;21.30;82.30
22006;DHT22;11167;46.988;15.470;2023-09-19T09:49:28;21.30;82.30
22006;DHT22;11167;46.988;15.470;2023-09-19T09:51:34;21.30;82.30
22006;DHT22;11167;46.988;15.470;2023-09-19T09:53:34;21.40;82.40
22006;DHT22;11167;46.988;15.470;2023-09-19T09:55:56;21.40;82.50
22006;DHT22;11167;46.988;15.470;2023-09-19T09:57:40;21.40;82.60
22006;DHT22;11167;46.988;15.470;2023-09-19T09:59:43;21.40;82.50
22006;DHT22;11167;46.988;15.470;2023-09-19T10:01:47;21.40;82.60
22006;DHT22;11167;46.988;15.470;2023-09-19T10:03:50;21.40;82.50
22006;DHT22;11167;46.988;15.470;2023-09-19T10:05:53;21.40;82.50
22006;DHT22;11167;46.988;15.470;2023-09-19T10:07:55;21.40;82.50
22006;DHT22;11167;46.988;15.470;2023-09-19T10:09:59;21.50;82.70
22006;DHT22;11167;46.988;15.470;2023-09-19T10:12:08;21.40;82.50
22006;DHT22;11167;46.988;15.470;2023-09-19T10:14:12;21.50;82.60
22006;DHT22;11167;46.988;15.470;2023-09-19T10:16:13;21.50;82.60
22006;DHT22;11167;46.988;15.470;2023-09-19T10:18:15;21.50;82.60
22006;DHT22;11167;46.988;15.470;2023-09-19T10:20:19;21.50;82.70
22006;DHT22;11167;46.988;15.470;2023-09-19T10:22:21;21.50;82.70
22006;DHT22;11167;46.988;15.470;2023-09-19T10:24:23;21.50;82.60
22006;DHT22;11167;46.988;15.470;2023-09-19T10:26:27;21.60;82.70
22006;DHT22;11167;46.988;15.470;2023-09-19T10:28:30;21.50;82.70
22006;DHT22;11167;46.988;15.470;2023-09-19T10:30:31;21.60;82.70
22006;DHT22;11167;46.988;15.470;2023-09-19T10:32:34;21.60;82.70
22006;DHT22;11167;46.988;15.470;2023-09-19T10:34:35;21.60;82.80
22006;DHT22;11167;46.988;15.470;2023-09-19T10:36:36;21.60;82.80
22006;DHT22;11167;46.988;15.470;2023-09-19T10:38:38;21.60;82.70
22006;DHT22;11167;46.988;15.470;2023-09-19T10:40:41;21.60;82.80
22006;DHT22;11167;46.988;15.470;2023-09-19T10:42:46;21.70;82.70
22006;DHT22;11167;46.988;15.470;2023-09-19T10:44:50;21.70;82.70
22006;DHT22;11167;46.988;15.470;2023-09-19T10:46:53;21.70;82.80
22006;DHT22;11167;46.988;15.470;2023-09-19T10:48:54;21.70;82.70
22006;DHT22;11167;46.988;15.470;2023-09-19T10:51:12;21.70;82.70
22006;DHT22;11167;46.988;15.470;2023-09-19T10:53:14;21.70;82.80
22006;DHT22;11167;46.988;15.470;2023-09-19T10:55:16;21.70;82.70
22006;DHT22;11167;46.988;15.470;2023-09-19T10:57:22;21.70;82.70
22006;DHT22;11167;46.988;15.470;2023-09-19T10:59:24;21.70;82.70
22006;DHT22;11167;46.988;15.470;2023-09-19T11:01:40;21.80;82.80
22006;DHT22;11167;46.988;15.470;2023-09-19T11:03:28;21.80;82.80
22006;DHT22;11167;46.988;15.470;2023-09-19T11:05:33;21.80;82.80
22006;DHT22;11167;46.988;15.470;2023-09-19T11:07:43;21.80;82.80
22006;DHT22;11167;46.988;15.470;2023-09-19T11:11:54;21.80;82.80
22006;DHT22;11167;46.988;15.470;2023-09-19T11:14:15;21.80;82.80
22006;DHT22;11167;46.988;15.470;2023-09-19T11:16:18;21.90;82.90
22006;DHT22;11167;46.988;15.470;2023-09-19T11:19:04;21.90;83.00
22006;DHT22;11167;46.988;15.470;2023-09-19T11:20:22;21.90;83.00
22006;DHT22;11167;46.988;15.470;2023-09-19T11:22:25;21.90;83.00
22006;DHT22;11167;46.988;15.470;2023-09-19T11:24:30;21.90;83.00
22006;DHT22;11167;46.988;15.470;2023-09-19T11:26:41;21.90;83.10
22006;DHT22;11167;46.988;15.470;2023-09-19T11:28:47;22.00;83.20
22006;DHT22;11167;46.988;15.470;2023-09-19T11:30:48;21.90;83.00
22006;DHT22;11167;46.988;15.470;2023-09-19T11:35:10;22.00;83.20
22006;DHT22;11167;46.988;15.470;2023-09-19T11:39:26;22.00;83.00
22006;DHT22;11167;46.988;15.470;2023-09-19T11:41:37;22.00;82.90
22006;DHT22;11167;46.988;15.470;2023-09-19T11:43:38;22.10;83.00
22006;DHT22;11167;46.988;15.470;2023-09-19T11:47:45;22.10;83.90
22006;DHT22;11167;46.988;15.470;2023-09-19T11:49:46;22.10;83.00
22006;DHT22;11167;46.988;15.470;2023-09-19T11:51:51;22.10;82.90
22006;DHT22;11167;46.988;15.470;2023-09-19T11:53:53;22.20;83.00
22006;DHT22;11167;46.988;15.470;2023-09-19T11:55:54;22.20;83.00
22006;DHT22;11167;46.988;15.470;2023-09-19T11:57:55;22.20;83.00
22006;DHT22;11167;46.988;15.470;2023-09-19T11:59:56;22.20;82.90
22006;DHT22;11167;46.988;15.470;2023-09-19T12:02:05;22.20;82.80
22006;DHT22;11167;46.988;15.470;2023-09-19T12:04:07;22.20;82.80
22006;DHT22;11167;46.988;15.470;2023-09-19T12:06:12;22.30;82.80
22006;DHT22;11167;46.988;15.470;2023-09-19T12:08:14;22.30;82.80
22006;DHT22;11167;46.988;15.470;2023-09-19T12:10:16;22.30;82.80
22006;DHT22;11167;46.988;15.470;2023-09-19T12:12:25;22.30;82.80
22006;DHT22;11167;46.988;15.470;2023-09-19T12:14:28;22.40;82.80
22006;DHT22;11167;46.988;15.470;2023-09-19T12:16:29;22.40;82.80
22006;DHT22;11167;46.988;15.470;2023-09-19T12:18:31;22.40;82.70
22006;DHT22;11167;46.988;15.470;2023-09-19T12:20:43;22.40;82.60
22006;DHT22;11167;46.988;15.470;2023-09-19T12:22:46;22.40;82.60
22006;DHT22;11167;46.988;15.470;2023-09-19T12:24:47;22.50;82.60
22006;DHT22;11167;46.988;15.470;2023-09-19T12:26:48;22.50;82.70
22006;DHT22;11167;46.988;15.470;2023-09-19T12:28:52;22.50;82.60
22006;DHT22;11167;46.988;15.470;2023-09-19T12:30:55;22.50;82.50
22006;DHT22;11167;46.988;15.470;2023-09-19T12:32:55;22.60;82.50
22006;DHT22;11167;46.988;15.470;2023-09-19T12:34:58;22.60;82.50
22006;DHT22;11167;46.988;15.470;2023-09-19T12:39:07;22.60;82.50
22006;DHT22;11167;46.988;15.470;2023-09-19T12:41:10;22.70;82.50
22006;DHT22;11167;46.988;15.470;2023-09-19T12:43:11;22.70;82.50
22006;DHT22;11167;46.988;15.470;2023-09-19T12:45:13;22.70;82.50
22006;DHT22;11167;46.988;15.470;2023-09-19T12:47:16;22.70;82.70
22006;DHT22;11167;46.988;15.470;2023-09-19T12:49:18;22.80;82.60
22006;DHT22;11167;46.988;15.470;2023-09-19T12:51:19;22.80;82.60
22006;DHT22;11167;46.988;15.470;2023-09-19T12:53:26;22.80;82.70
22006;DHT22;11167;46.988;15.470;2023-09-19T12:55:29;22.90;82.70
22006;DHT22;11167;46.988;15.470;2023-09-19T12:57:33;22.90;82.70
22006;DHT22;11167;46.988;15.470;2023-09-19T12:59:35;22.90;82.70
22006;DHT22;11167;46.988;15.470;2023-09-19T13:01:36;22.90;82.70
22006;DHT22;11167;46.988;15.470;2023-09-19T13:03:39;23.00;82.90
22006;DHT22;11167;46.988;15.470;2023-09-19T13:05:53;23.00;82.90
22006;DHT22;11167;46.988;15.470;2023-09-19T13:07:55;23.10;82.90
22006;DHT22;11167;46.988;15.470;2023-09-19T13:10:03;23.10;83.00
22006;DHT22;11167;46.988;15.470;2023-09-19T13:14:29;23.10;83.00
22006;DHT22;11167;46.988;15.470;2023-09-19T13:16:35;23.20;83.00
22006;DHT22;11167;46.988;15.470;2023-09-19T13:18:42;23.20;83.10
22006;DHT22;11167;46.988;15.470;2023-09-19T13:20:55;23.20;83.00